createdAt,value
2022-11-11T00:01:12.668Z,102258.50
2022-11-11T00:03:40.550Z,102260.34
2022-11-11T00:06:11.082Z,102255.13
2022-11-11T00:08:38.786Z,102253.94
2022-11-11T00:11:09.390Z,102253.41
2022-11-11T00:13:38.149Z,102252.84
2022-11-11T00:16:07.109Z,102250.19
2022-11-11T00:18:52.568Z,102248.69
2022-11-11T00:21:38.616Z,102246.09
2022-11-11T00:24:27.095Z,102249.97
2022-11-11T00:26:56.226Z,102240.06
2022-11-11T00:29:24.076Z,102238.22
2022-11-11T00:32:09.085Z,102247.19
2022-11-11T00:34:36.870Z,102244.00
2022-11-11T00:37:03.746Z,102241.38
2022-11-11T00:39:31.499Z,102246.28
2022-11-11T00:42:00.586Z,102243.72
2022-11-11T00:44:28.356Z,102244.00
2022-11-11T00:47:13.646Z,102241.31
2022-11-11T00:49:59.002Z,102242.69
2022-11-11T00:52:26.858Z,102243.47
2022-11-11T00:54:54.682Z,102240.03
2022-11-11T00:57:23.881Z,102248.81
2022-11-11T00:59:51.665Z,102246.50
2022-11-11T01:02:19.486Z,102249.88
2022-11-11T01:04:47.301Z,102253.31
2022-11-11T01:07:15.156Z,102255.94
2022-11-11T01:09:43.126Z,102253.19
2022-11-11T01:12:10.839Z,102249.34
2022-11-11T01:14:40.155Z,102249.25
2022-11-11T01:17:09.650Z,102252.84
2022-11-11T01:19:37.553Z,102248.34
2022-11-11T01:22:05.409Z,102243.56
2022-11-11T01:24:33.166Z,102251.00
2022-11-11T01:27:00.978Z,102256.19
2022-11-11T01:29:28.797Z,102259.88
2022-11-11T01:31:58.570Z,102267.78
2022-11-11T01:34:27.779Z,102267.56
2022-11-11T01:36:55.571Z,102261.31
2022-11-11T01:39:23.572Z,102271.72
2022-11-11T01:41:51.373Z,102266.75
2022-11-11T01:44:40.849Z,102271.47
2022-11-11T01:47:10.077Z,102264.88
2022-11-11T01:49:45.081Z,102275.91
2022-11-11T01:52:16.162Z,102275.72
2022-11-11T01:54:48.939Z,102271.63
2022-11-11T01:57:21.247Z,102273.63
2022-11-11T01:59:53.583Z,102273.34
2022-11-11T02:02:27.611Z,102271.28
2022-11-11T02:05:13.960Z,102272.22
2022-11-11T02:07:43.197Z,102268.78
2022-11-11T02:10:11.541Z,102270.44
2022-11-11T02:13:08.051Z,102268.75
2022-11-11T02:15:36.800Z,102264.00
2022-11-11T02:18:07.067Z,102262.84
2022-11-11T02:20:38.968Z,102259.69
2022-11-11T02:23:12.212Z,102258.19
2022-11-11T02:25:46.390Z,102255.72
2022-11-11T02:28:15.702Z,102253.25
2022-11-11T02:30:43.498Z,102254.63
2022-11-11T02:33:11.499Z,102253.81
2022-11-11T02:35:43.719Z,102256.34
2022-11-11T02:38:12.951Z,102241.47
2022-11-11T02:41:04.485Z,102245.16
2022-11-11T02:43:33.768Z,102251.97
2022-11-11T02:46:03.000Z,102243.56
2022-11-11T02:48:31.270Z,102253.03
2022-11-11T02:50:59.017Z,102251.28
2022-11-11T02:53:27.297Z,102249.88
2022-11-11T02:55:56.835Z,102245.28
2022-11-11T02:58:24.699Z,102256.06
2022-11-11T03:00:52.464Z,102236.59
2022-11-11T03:03:20.303Z,102239.16
2022-11-11T03:05:48.044Z,102232.25
2022-11-11T03:08:15.955Z,102233.84
2022-11-11T03:10:43.759Z,102231.94
2022-11-11T03:13:13.043Z,102228.66
2022-11-11T03:15:40.862Z,102231.00
2022-11-11T03:18:07.636Z,102229.44
2022-11-11T03:20:52.682Z,102238.00
2022-11-11T03:23:20.540Z,102238.00
2022-11-11T03:25:48.837Z,102229.06
2022-11-11T03:28:19.701Z,102230.63
2022-11-11T03:30:49.006Z,102236.00
2022-11-11T03:33:17.307Z,102234.31
2022-11-11T03:35:45.901Z,102232.56
2022-11-11T03:38:18.845Z,102234.38
2022-11-11T03:40:48.245Z,102226.78
2022-11-11T03:43:18.844Z,102229.25
2022-11-11T03:45:47.551Z,102221.00
2022-11-11T03:48:16.005Z,102228.13
2022-11-11T03:50:43.926Z,102226.28
2022-11-11T03:53:11.729Z,102224.88
2022-11-11T03:55:39.453Z,102222.91
2022-11-11T03:58:07.372Z,102224.13
2022-11-11T04:00:37.148Z,102222.59
2022-11-11T04:03:24.807Z,102223.41
2022-11-11T04:06:10.401Z,102229.56
2022-11-11T04:08:55.885Z,102216.06
2022-11-11T04:11:27.650Z,102223.88
2022-11-11T04:14:17.152Z,102220.72
2022-11-11T04:16:46.258Z,102216.28
2022-11-11T04:19:30.518Z,102222.69
2022-11-11T04:21:58.241Z,102225.69
2022-11-11T04:24:42.841Z,102210.59
2022-11-11T04:27:12.812Z,102225.41
2022-11-11T04:29:40.327Z,102217.28
2022-11-11T04:32:27.075Z,102219.16
2022-11-11T04:34:56.330Z,102216.97
2022-11-11T04:37:25.734Z,102229.56
2022-11-11T04:40:11.204Z,102224.03
2022-11-11T04:42:39.392Z,102224.97
2022-11-11T04:45:26.220Z,102230.94
2022-11-11T04:47:57.352Z,102235.56
2022-11-11T04:50:27.067Z,102233.06
2022-11-11T04:52:55.627Z,102223.75
2022-11-11T04:55:40.922Z,102226.19
2022-11-11T04:58:08.670Z,102226.25
2022-11-11T05:00:36.950Z,102229.47
2022-11-11T05:03:18.596Z,102221.97
2022-11-11T05:06:05.158Z,102222.97
2022-11-11T05:09:02.388Z,102227.38
2022-11-11T05:11:31.752Z,102228.31
2022-11-11T05:14:18.441Z,102219.00
2022-11-11T05:17:05.575Z,102220.78
2022-11-11T05:19:52.343Z,102225.44
2022-11-11T05:22:24.616Z,102226.06
2022-11-11T05:25:10.421Z,102231.31
2022-11-11T05:27:38.270Z,102225.00
2022-11-11T05:30:07.801Z,102225.06
2022-11-11T05:32:35.703Z,102231.03
2022-11-11T05:35:05.041Z,102234.59
2022-11-11T05:37:34.069Z,102232.75
2022-11-11T05:40:01.959Z,102239.81
2022-11-11T05:42:29.640Z,102229.09
2022-11-11T05:44:57.424Z,102232.50
2022-11-11T05:47:25.636Z,102230.78
2022-11-11T05:49:53.512Z,102225.69
2022-11-11T05:52:22.564Z,102227.72
2022-11-11T05:54:50.341Z,102230.78
2022-11-11T05:57:18.087Z,102229.09
2022-11-11T05:59:45.754Z,102223.69
2022-11-11T06:02:13.513Z,102219.53
2022-11-11T06:04:41.241Z,102220.16
2022-11-11T06:07:09.026Z,102226.72
2022-11-11T06:09:38.151Z,102225.50
2022-11-11T06:12:06.118Z,102228.25
2022-11-11T06:14:33.832Z,102221.38
2022-11-11T06:17:01.573Z,102220.47
2022-11-11T06:19:29.276Z,102211.63
2022-11-11T06:22:01.705Z,102208.84
2022-11-11T06:24:29.439Z,102198.25
2022-11-11T06:26:57.539Z,102199.44
2022-11-11T06:29:25.315Z,102188.16
2022-11-11T06:31:53.028Z,102196.81
2022-11-11T06:34:20.851Z,102200.50
2022-11-11T06:36:48.572Z,102205.66
2022-11-11T06:39:16.336Z,102212.34
2022-11-11T06:41:44.027Z,102206.03
2022-11-11T06:44:13.073Z,102210.38
2022-11-11T06:46:40.913Z,102207.03
2022-11-11T06:49:08.596Z,102215.78
2022-11-11T06:51:36.462Z,102217.69
2022-11-11T06:54:04.480Z,102225.91
2022-11-11T06:56:32.235Z,102215.00
2022-11-11T06:59:00.049Z,102222.22
2022-11-11T07:01:29.188Z,102226.56
2022-11-11T07:03:56.961Z,102219.34
2022-11-11T07:06:24.650Z,102233.19
2022-11-11T07:08:52.356Z,102230.84
2022-11-11T07:11:20.144Z,102234.63
2022-11-11T07:13:47.914Z,102220.38
2022-11-11T07:16:15.672Z,102219.63
2022-11-11T07:18:44.717Z,102217.34
2022-11-11T07:21:12.491Z,102229.72
2022-11-11T07:23:40.219Z,102235.94
2022-11-11T07:26:07.955Z,102237.75
2022-11-11T07:28:35.671Z,102242.50
2022-11-11T07:31:03.480Z,102236.47
2022-11-11T07:33:31.345Z,102236.06
2022-11-11T07:36:00.384Z,102231.50
2022-11-11T07:38:28.151Z,102229.97
2022-11-11T07:40:55.868Z,102225.94
2022-11-11T07:43:25.148Z,102229.41
2022-11-11T07:45:52.847Z,102228.63
2022-11-11T07:48:20.690Z,102226.47
2022-11-11T07:50:48.475Z,102228.03
2022-11-11T07:53:17.542Z,102238.25
2022-11-11T07:55:46.376Z,102231.72
2022-11-11T07:58:14.224Z,102236.34
2022-11-11T08:00:42.024Z,102243.94
2022-11-11T08:03:09.769Z,102252.97
2022-11-11T08:05:37.617Z,102261.75
2022-11-11T08:08:06.131Z,102263.72
2022-11-11T08:10:35.869Z,102261.47
2022-11-11T08:13:21.585Z,102262.06
2022-11-11T08:15:50.766Z,102267.88
2022-11-11T08:18:18.471Z,102275.03
2022-11-11T08:20:50.557Z,102272.56
2022-11-11T08:24:22.464Z,102271.81
2022-11-11T08:26:28.792Z,102280.06
2022-11-11T08:28:57.492Z,102273.75
2022-11-11T08:31:25.296Z,102276.88
2022-11-11T08:33:53.070Z,102282.22
2022-11-11T08:36:21.559Z,102282.16
2022-11-11T08:38:49.408Z,102278.19
2022-11-11T08:41:18.060Z,102282.78
2022-11-11T08:43:47.174Z,102286.50
2022-11-11T08:46:14.900Z,102284.56
2022-11-11T08:48:42.675Z,102293.31
2022-11-11T08:51:10.533Z,102307.19
2022-11-11T08:53:38.236Z,102319.34
2022-11-11T08:56:06.810Z,102314.06
2022-11-11T08:58:34.641Z,102320.75
2022-11-11T09:01:04.396Z,102331.50
2022-11-11T09:03:32.421Z,102329.06
2022-11-11T09:06:00.141Z,102328.56
2022-11-11T09:08:27.906Z,102333.69
2022-11-11T09:10:55.654Z,102331.81
2022-11-11T09:13:23.837Z,102325.03
2022-11-11T09:15:54.491Z,102319.50
2022-11-11T09:18:23.577Z,102328.09
2022-11-11T09:20:51.281Z,102334.25
2022-11-11T09:23:19.038Z,102328.56
2022-11-11T09:25:46.964Z,102341.03
2022-11-11T09:28:15.290Z,102338.94
2022-11-11T09:30:43.007Z,102340.50
2022-11-11T09:33:12.443Z,102347.81
2022-11-11T09:35:41.559Z,102356.19
2022-11-11T09:38:10.173Z,102350.28
2022-11-11T09:40:54.315Z,102354.81
2022-11-11T09:43:35.870Z,102346.72
2022-11-11T09:46:15.272Z,102351.13
2022-11-11T09:48:59.038Z,102348.84
2022-11-11T09:51:31.309Z,102349.63
2022-11-11T09:54:05.040Z,102359.47
2022-11-11T09:56:34.166Z,102358.31
2022-11-11T09:59:07.812Z,102351.91
2022-11-11T10:01:40.482Z,102348.63
2022-11-11T10:04:21.062Z,102347.16
2022-11-11T10:06:53.214Z,102350.31
2022-11-11T10:09:25.175Z,102352.25
2022-11-11T10:12:02.744Z,102352.25
2022-11-11T10:14:36.013Z,102351.72
2022-11-11T10:17:11.073Z,102351.44
2022-11-11T10:19:52.129Z,102352.25
2022-11-11T10:22:23.817Z,102340.47
2022-11-11T10:25:03.841Z,102350.59
2022-11-11T10:27:34.077Z,102352.84
2022-11-11T10:30:08.880Z,102355.41
2022-11-11T10:32:37.754Z,102341.56
2022-11-11T10:35:17.494Z,102347.38
2022-11-11T10:37:47.062Z,102338.41
2022-11-11T10:40:20.299Z,102343.41
2022-11-11T10:42:48.095Z,102343.88
2022-11-11T10:45:24.572Z,102353.38
2022-11-11T10:47:57.622Z,102350.16
2022-11-11T10:50:33.029Z,102359.97
2022-11-11T10:53:11.066Z,102351.22
2022-11-11T10:55:47.307Z,102355.63
2022-11-11T10:58:20.904Z,102351.53
2022-11-11T11:00:52.359Z,102357.91
2022-11-11T11:03:25.255Z,102361.06
2022-11-11T11:05:59.004Z,102352.41
2022-11-11T11:08:32.045Z,102347.03
2022-11-11T11:11:03.625Z,102347.66
2022-11-11T11:13:37.500Z,102348.91
2022-11-11T11:16:14.473Z,102343.03
2022-11-11T11:18:43.563Z,102331.22
2022-11-11T11:21:11.645Z,102332.44
2022-11-11T11:23:42.778Z,102328.34
2022-11-11T11:26:12.759Z,102330.22
2022-11-11T11:28:54.871Z,102316.41
2022-11-11T11:31:37.208Z,102312.91
2022-11-11T11:34:05.312Z,102306.34
2022-11-11T11:36:33.028Z,102304.16
2022-11-11T11:39:02.089Z,102298.97
2022-11-11T11:41:40.657Z,102295.22
2022-11-11T11:44:26.631Z,102285.31
2022-11-11T11:46:58.109Z,102293.66
2022-11-11T11:49:41.233Z,102291.50
2022-11-11T11:52:18.415Z,102288.59
2022-11-11T11:54:56.819Z,102287.00
2022-11-11T11:57:38.321Z,102289.22
2022-11-11T12:00:14.147Z,102275.00
2022-11-11T12:03:09.953Z,102281.47
2022-11-11T12:05:43.779Z,102275.44
2022-11-11T12:08:30.068Z,102282.81
2022-11-11T12:11:06.735Z,102279.97
2022-11-11T12:13:42.259Z,102276.22
2022-11-11T12:16:24.204Z,102267.59
2022-11-11T12:19:07.616Z,102267.84
2022-11-11T12:21:43.841Z,102264.94
2022-11-11T12:24:23.760Z,102270.56
2022-11-11T12:27:01.410Z,102258.41
2022-11-11T12:29:43.419Z,102252.38
2022-11-11T12:32:32.705Z,102242.25
2022-11-11T12:35:18.350Z,102244.91
2022-11-11T12:37:57.898Z,102242.59
2022-11-11T12:40:40.206Z,102241.16
2022-11-11T12:43:23.208Z,102234.03
2022-11-11T12:45:56.097Z,102242.91
2022-11-11T12:48:40.724Z,102232.06
2022-11-11T12:51:16.843Z,102220.53
2022-11-11T12:53:53.213Z,102221.63
2022-11-11T12:56:30.088Z,102221.13
2022-11-11T12:59:05.340Z,102222.69
2022-11-11T13:01:49.464Z,102217.16
2022-11-11T13:04:34.183Z,102218.13
2022-11-11T13:07:22.521Z,102219.38
2022-11-11T13:10:04.051Z,102214.47
2022-11-11T13:12:37.679Z,102215.56
2022-11-11T13:15:15.639Z,102216.13
2022-11-11T13:17:43.420Z,102220.56
2022-11-11T13:20:22.133Z,102215.66
2022-11-11T13:22:51.004Z,102208.97
2022-11-11T13:25:23.587Z,102203.78
2022-11-11T13:27:55.029Z,102213.00
2022-11-11T13:30:47.284Z,102205.72
2022-11-11T13:33:22.516Z,102194.03
2022-11-11T13:35:56.048Z,102184.94
2022-11-11T13:38:28.572Z,102188.66
2022-11-11T13:40:59.298Z,102192.59
2022-11-11T13:43:31.984Z,102190.50
2022-11-11T13:46:04.053Z,102188.72
2022-11-11T13:48:37.050Z,102178.22
2022-11-11T13:51:26.361Z,102181.94
2022-11-11T13:53:54.703Z,102182.78
2022-11-11T13:56:29.005Z,102180.69
2022-11-11T13:58:57.956Z,102175.53
2022-11-11T14:01:41.487Z,102171.47
2022-11-11T14:04:11.140Z,102174.41
2022-11-11T14:06:52.198Z,102174.44
2022-11-11T14:09:58.935Z,102171.41
2022-11-11T14:12:42.427Z,102178.28
2022-11-11T14:15:28.574Z,102176.38
2022-11-11T14:17:57.704Z,102186.28
2022-11-11T14:20:37.396Z,102177.41
2022-11-11T14:23:25.970Z,102178.72
2022-11-11T14:26:21.932Z,102177.41
2022-11-11T14:28:55.395Z,102177.88
2022-11-11T14:31:33.389Z,102173.41
2022-11-11T14:34:09.011Z,102161.41
2022-11-11T14:36:44.734Z,102169.47
2022-11-11T14:39:22.164Z,102169.94
2022-11-11T14:41:52.072Z,102182.19
2022-11-11T14:44:44.720Z,102172.00
2022-11-11T14:47:40.846Z,102169.72
2022-11-11T14:50:43.959Z,102172.66
2022-11-11T14:53:18.122Z,102166.41
2022-11-11T14:55:53.000Z,102174.09
2022-11-11T14:58:24.772Z,102183.59
2022-11-11T15:00:54.824Z,102176.13
2022-11-11T15:03:28.140Z,102183.81
2022-11-11T15:06:03.796Z,102181.03
2022-11-11T15:08:39.971Z,102185.09
2022-11-11T15:11:18.804Z,102187.31
2022-11-11T15:14:03.904Z,102179.78
2022-11-11T15:16:49.328Z,102176.97
2022-11-11T15:19:33.067Z,102168.59
2022-11-11T15:22:08.957Z,102162.69
2022-11-11T15:24:46.603Z,102160.50
2022-11-11T15:27:24.882Z,102170.59
2022-11-11T15:30:12.411Z,102165.63
2022-11-11T15:32:54.717Z,102163.69
2022-11-11T15:35:34.919Z,102164.16
2022-11-11T15:38:06.134Z,102159.00
2022-11-11T15:40:45.016Z,102167.88
2022-11-11T15:43:17.676Z,102164.47
2022-11-11T15:45:45.697Z,102159.69
2022-11-11T15:48:23.440Z,102160.16
2022-11-11T15:50:51.243Z,102161.50
2022-11-11T15:53:26.792Z,102164.94
2022-11-11T15:55:56.992Z,102172.81
2022-11-11T15:58:29.606Z,102170.63
2022-11-11T16:00:58.759Z,102171.06
2022-11-11T16:03:33.391Z,102175.53
2022-11-11T16:06:02.919Z,102167.47
2022-11-11T16:08:32.079Z,102166.47
2022-11-11T16:11:01.976Z,102154.44
2022-11-11T16:13:35.438Z,102161.34
2022-11-11T16:16:05.136Z,102155.56
2022-11-11T16:18:38.144Z,102159.13
2022-11-11T16:21:09.743Z,102151.34
2022-11-11T16:23:39.704Z,102152.03
2022-11-11T16:26:09.022Z,102156.72
2022-11-11T16:28:41.343Z,102146.53
2022-11-11T16:31:22.517Z,102160.66
2022-11-11T16:33:50.284Z,102166.56
2022-11-11T16:36:18.067Z,102165.81
2022-11-11T16:38:47.191Z,102170.00
2022-11-11T16:41:25.972Z,102173.91
2022-11-11T16:43:55.390Z,102184.50
2022-11-11T16:46:45.131Z,102171.06
2022-11-11T16:49:22.632Z,102178.09
2022-11-11T16:51:50.678Z,102175.81
2022-11-11T16:54:22.502Z,102178.03
2022-11-11T16:56:54.240Z,102184.19
2022-11-11T16:59:27.758Z,102186.47
2022-11-11T17:01:55.544Z,102185.09
2022-11-11T17:04:25.455Z,102185.72
2022-11-11T17:06:56.570Z,102186.84
2022-11-11T17:09:35.763Z,102188.31
2022-11-11T17:12:03.600Z,102190.63
2022-11-11T17:14:34.756Z,102190.44
2022-11-11T17:17:03.795Z,102207.47
2022-11-11T17:19:33.932Z,102201.38
2022-11-11T17:22:10.551Z,102211.19
2022-11-11T17:24:39.828Z,102199.13
2022-11-11T17:27:08.421Z,102206.13
2022-11-11T17:29:38.879Z,102208.44
2022-11-11T17:32:07.453Z,102208.94
2022-11-11T17:34:35.178Z,102212.38
2022-11-11T17:37:02.965Z,102213.59
2022-11-11T17:39:30.691Z,102217.00
2022-11-11T17:41:59.802Z,102221.94
2022-11-11T17:44:27.619Z,102217.84
2022-11-11T17:46:55.307Z,102221.59
2022-11-11T17:49:42.307Z,102222.75
2022-11-11T17:52:10.724Z,102222.75
2022-11-11T17:54:38.549Z,102218.88
2022-11-11T17:57:07.944Z,102225.09
2022-11-11T17:59:35.696Z,102216.06
2022-11-11T18:02:03.709Z,102218.41
2022-11-11T18:04:31.528Z,102212.03
2022-11-11T18:06:59.460Z,102213.59
2022-11-11T18:09:27.249Z,102216.44
2022-11-11T18:11:55.016Z,102209.31
2022-11-11T18:14:24.227Z,102208.56
2022-11-11T18:16:51.912Z,102195.09
2022-11-11T18:19:19.627Z,102204.53
2022-11-11T18:21:47.426Z,102213.59
2022-11-11T18:24:15.243Z,102212.88
2022-11-11T18:26:43.009Z,102210.31
2022-11-11T18:29:10.822Z,102215.91
2022-11-11T18:31:39.964Z,102218.94
2022-11-11T18:34:07.655Z,102216.78
2022-11-11T18:36:35.408Z,102214.22
2022-11-11T18:39:03.127Z,102215.66
2022-11-11T18:41:31.491Z,102209.75
2022-11-11T18:43:59.930Z,102200.63
2022-11-11T18:46:30.181Z,102213.34
2022-11-11T18:49:00.611Z,102214.31
2022-11-11T18:51:31.045Z,102215.75
2022-11-11T18:53:58.956Z,102216.75
2022-11-11T18:56:28.320Z,102222.78
2022-11-11T18:58:57.914Z,102215.44
2022-11-11T19:01:27.814Z,102216.97
2022-11-11T19:03:58.370Z,102214.41
2022-11-11T19:06:28.807Z,102211.56
2022-11-11T19:08:58.565Z,102218.25
2022-11-11T19:11:27.364Z,102212.72
2022-11-11T19:13:55.581Z,102210.75
2022-11-11T19:16:24.936Z,102209.94
2022-11-11T19:18:53.278Z,102206.03
2022-11-11T19:21:22.582Z,102210.19
2022-11-11T19:23:53.639Z,102206.72
2022-11-11T19:26:23.038Z,102201.00
2022-11-11T19:28:51.064Z,102202.03
2022-11-11T19:31:20.796Z,102198.00
2022-11-11T19:33:53.983Z,102201.00
2022-11-11T19:36:24.749Z,102204.38
2022-11-11T19:38:54.020Z,102203.56
2022-11-11T19:41:24.067Z,102196.94
2022-11-11T19:43:54.069Z,102207.59
2022-11-11T19:46:22.321Z,102203.88
2022-11-11T19:48:53.690Z,102199.34
2022-11-11T19:51:23.001Z,102196.94
2022-11-11T19:53:55.991Z,102196.75
2022-11-11T19:56:29.777Z,102198.84
2022-11-11T19:58:57.512Z,102200.53
2022-11-11T20:01:26.906Z,102205.84
2022-11-11T20:03:55.508Z,102198.88
2022-11-11T20:06:26.319Z,102204.78
2022-11-11T20:08:54.441Z,102208.72
2022-11-11T20:11:22.595Z,102205.09
2022-11-11T20:13:51.685Z,102210.47
2022-11-11T20:16:19.921Z,102211.59
2022-11-11T20:18:47.706Z,102201.09
2022-11-11T20:21:15.498Z,102215.28
2022-11-11T20:23:43.784Z,102211.66
2022-11-11T20:26:13.345Z,102209.28
2022-11-11T20:28:41.748Z,102199.78
2022-11-11T20:31:12.362Z,102203.97
2022-11-11T20:33:40.507Z,102203.66
2022-11-11T20:36:10.519Z,102208.63
2022-11-11T20:38:39.152Z,102214.91
2022-11-11T20:41:08.836Z,102207.44
2022-11-11T20:43:37.469Z,102208.78
2022-11-11T20:46:06.918Z,102206.13
2022-11-11T20:48:36.326Z,102209.75
2022-11-11T20:51:05.309Z,102205.75
2022-11-11T20:53:33.066Z,102211.88
2022-11-11T20:56:01.941Z,102207.41
2022-11-11T20:58:29.944Z,102207.31
2022-11-11T21:01:02.358Z,102208.34
2022-11-11T21:03:31.663Z,102215.75
2022-11-11T21:06:09.291Z,102205.25
2022-11-11T21:08:39.516Z,102201.16
2022-11-11T21:11:09.229Z,102207.09
2022-11-11T21:13:37.682Z,102196.66
2022-11-11T21:16:06.457Z,102197.41
2022-11-11T21:18:34.947Z,102202.34
2022-11-11T21:21:11.235Z,102193.75
2022-11-11T21:23:40.051Z,102191.97
2022-11-11T21:26:09.332Z,102191.72
2022-11-11T21:28:38.444Z,102189.38
2022-11-11T21:31:08.180Z,102191.22
2022-11-11T21:33:36.676Z,102180.81
2022-11-11T21:36:06.762Z,102184.16
2022-11-11T21:38:36.664Z,102188.06
2022-11-11T21:41:06.072Z,102179.94
2022-11-11T21:43:35.523Z,102180.63
2022-11-11T21:46:04.380Z,102184.56
2022-11-11T21:48:33.497Z,102183.63
2022-11-11T21:51:03.312Z,102184.03
2022-11-11T21:53:31.055Z,102192.78
2022-11-11T21:56:05.153Z,102192.78
2022-11-11T21:58:33.076Z,102193.72
2022-11-11T22:01:05.647Z,102189.28
2022-11-11T22:03:33.823Z,102190.97
2022-11-11T22:06:06.677Z,102198.72
2022-11-11T22:08:34.832Z,102195.34
2022-11-11T22:11:06.215Z,102198.47
2022-11-11T22:13:34.808Z,102184.03
2022-11-11T22:16:05.046Z,102194.59
2022-11-11T22:18:33.080Z,102195.53
2022-11-11T22:21:06.080Z,102192.41
2022-11-11T22:23:34.232Z,102188.97
2022-11-11T22:26:04.672Z,102191.22
2022-11-11T22:28:33.229Z,102194.81
2022-11-11T22:31:08.945Z,102196.59
2022-11-11T22:33:37.632Z,102194.91
2022-11-11T22:36:07.636Z,102196.75
2022-11-11T22:38:35.912Z,102188.56
2022-11-11T22:41:07.267Z,102188.28
2022-11-11T22:43:58.513Z,102189.63
2022-11-11T22:46:25.573Z,102177.28
2022-11-11T22:48:54.939Z,102190.13
2022-11-11T22:51:23.597Z,102186.72
2022-11-11T22:53:55.940Z,102186.56
2022-11-11T22:56:25.807Z,102188.25
2022-11-11T22:58:54.642Z,102193.59
2022-11-11T23:01:29.115Z,102181.41
2022-11-11T23:03:58.229Z,102190.47
2022-11-11T23:06:28.163Z,102185.78
2022-11-11T23:08:56.233Z,102192.97
2022-11-11T23:11:26.840Z,102192.22
2022-11-11T23:13:59.980Z,102193.25
2022-11-11T23:16:28.303Z,102185.25
2022-11-11T23:18:56.076Z,102181.88
2022-11-11T23:21:25.384Z,102181.47
2022-11-11T23:23:53.751Z,102185.78
2022-11-11T23:26:24.268Z,102184.66
2022-11-11T23:28:53.529Z,102180.47
2022-11-11T23:31:23.672Z,102183.94
2022-11-11T23:33:53.927Z,102177.13
2022-11-11T23:36:23.652Z,102175.94
2022-11-11T23:38:51.845Z,102169.91
2022-11-11T23:41:20.519Z,102168.97
2022-11-11T23:43:48.337Z,102176.84
2022-11-11T23:46:17.437Z,102177.38
2022-11-11T23:48:45.250Z,102183.88
2022-11-11T23:51:13.313Z,102169.81
2022-11-11T23:53:41.005Z,102167.56
2022-11-11T23:56:08.920Z,102167.69
2022-11-11T23:58:36.608Z,102171.72
